Time;durP1;ratioP1;P1;durP2;ratioP2;P2;SDS_P1;SDS_P2;PMS_P1;PMS_P2;Temp;Humidity;BMP_temperature;BMP_pressure;BME280_temperature;BME280_humidity;BME280_pressure;Samples;Min_cycle;Max_cycle;Signal;HPM_P1;HPM_P2
2022/10/17 00:01:20;;;;;;;11.93;6.47;;;;;;;10.34;100.00;99032.28;4157982;28;20049;-74
2022/10/17 00:03:21;;;;;;;11.13;6.65;;;;;;;10.34;100.00;99016.53;4157183;28;20120;-74
2022/10/17 00:05:22;;;;;;;11.30;6.93;;;;;;;10.32;100.00;99020.81;4164313;28;20045;-74
2022/10/17 00:07:22;;;;;;;11.20;6.50;;;;;;;10.35;100.00;99011.81;4161516;28;20102;-74
2022/10/17 00:09:22;;;;;;;9.65;5.53;;;;;;;10.38;100.00;99027.66;4160412;28;20045;-74
2022/10/17 00:11:23;;;;;;;10.32;5.78;;;;;;;10.34;100.00;99022.06;4158788;28;20067;-74
2022/10/17 00:13:24;;;;;;;10.27;6.43;;;;;;;10.33;100.00;99025.16;4156138;28;20508;-74
2022/10/17 00:15:24;;;;;;;11.82;6.68;;;;;;;10.34;100.00;99029.53;4158352;28;20716;-74
2022/10/17 00:17:24;;;;;;;8.98;5.78;;;;;;;10.27;100.00;99018.34;4157640;28;20061;-74
2022/10/17 00:19:25;;;;;;;9.45;6.00;;;;;;;10.28;100.00;99012.44;4155555;28;20104;-74
2022/10/17 00:21:25;;;;;;;11.20;6.72;;;;;;;10.30;100.00;99026.72;4156682;28;20659;-73
2022/10/17 00:23:29;;;;;;;14.20;5.22;;;;;;;10.26;100.00;99014.78;4156919;28;20754;-73
2022/10/17 00:25:29;;;;;;;8.35;6.10;;;;;;;10.27;100.00;99024.69;4157520;28;20346;-73
2022/10/17 00:27:29;;;;;;;10.85;6.70;;;;;;;10.29;100.00;99032.59;4156641;28;20049;-74
2022/10/17 00:29:30;;;;;;;8.20;5.28;;;;;;;10.30;100.00;99020.38;4157245;28;20276;-74
2022/10/17 00:31:30;;;;;;;7.85;5.40;;;;;;;10.34;100.00;99029.53;4158510;28;20052;-74
2022/10/17 00:33:32;;;;;;;7.63;5.43;;;;;;;10.37;100.00;99026.06;4159402;28;20123;-74
2022/10/17 00:35:32;;;;;;;5.50;4.45;;;;;;;10.48;100.00;99021.53;4156040;28;20053;-74
2022/10/17 00:37:34;;;;;;;6.97;4.63;;;;;;;10.73;100.00;99013.72;4157210;28;20398;-73
2022/10/17 00:39:34;;;;;;;6.72;4.45;;;;;;;11.04;100.00;99006.41;4156084;28;20136;-73
2022/10/17 00:41:34;;;;;;;6.53;3.25;;;;;;;11.42;100.00;99017.38;4155735;28;20079;-73
2022/10/17 00:43:57;;;;;;;5.32;3.40;;;;;;;12.02;100.00;99025.84;4155288;28;20079;-74
2022/10/17 00:45:57;;;;;;;3.17;2.50;;;;;;;12.38;100.00;99018.78;4159272;28;20087;-73
2022/10/17 00:48:02;;;;;;;2.85;2.22;;;;;;;12.73;100.00;99009.28;4159398;28;20292;-74
2022/10/17 00:50:05;;;;;;;3.25;1.90;;;;;;;12.98;100.00;99009.56;4155224;28;20121;-73
2022/10/17 00:52:10;;;;;;;4.82;2.13;;;;;;;13.32;100.00;99015.91;4156413;28;20029;-74
2022/10/17 00:54:13;;;;;;;2.10;1.80;;;;;;;13.42;100.00;99015.19;4159046;28;20329;-73
2022/10/17 00:56:14;;;;;;;2.10;1.75;;;;;;;13.68;100.00;99014.19;4156228;28;20472;-74
2022/10/17 00:58:14;;;;;;;2.88;1.73;;;;;;;13.80;100.00;99017.84;4155221;28;20519;-74
2022/10/17 01:00:16;;;;;;;2.40;1.95;;;;;;;13.96;99.42;99005.25;4156870;28;20037;-74
2022/10/17 01:02:19;;;;;;;3.15;2.13;;;;;;;14.01;98.23;99009.66;4156609;28;20040;-74
2022/10/17 01:04:20;;;;;;;3.28;1.83;;;;;;;13.99;97.10;99001.72;4160319;28;20033;-74
2022/10/17 01:06:20;;;;;;;2.38;1.50;;;;;;;14.08;97.94;98997.78;4156911;28;20244;-74
2022/10/17 01:08:20;;;;;;;4.30;1.90;;;;;;;14.08;97.96;99008.91;4157211;28;20460;-74
2022/10/17 01:10:24;;;;;;;3.03;1.98;;;;;;;14.28;97.05;99011.00;4157005;28;20059;-74
2022/10/17 01:12:35;;;;;;;2.55;1.85;;;;;;;14.32;96.26;99008.25;4155412;28;20088;-74
2022/10/17 01:15:19;;;;;;;2.70;1.80;;;;;;;14.50;95.89;99011.13;4155289;28;20045;-74
2022/10/17 01:17:34;;;;;;;;;;;;;;;14.52;94.75;99003.19;4102971;28;20102;-74
2022/10/17 01:19:43;;;;;;;2.20;1.80;;;;;;;14.59;94.28;99012.38;4102068;28;20422;-74
2022/10/17 01:21:54;;;;;;;3.53;1.48;;;;;;;14.68;93.36;99011.22;4108136;28;20836;-74
2022/10/17 01:24:09;;;;;;;1.95;1.67;;;;;;;14.86;92.80;99015.63;4159975;28;20569;-74
2022/10/17 01:26:21;;;;;;;2.95;1.67;;;;;;;14.99;91.57;99012.50;4155074;28;20148;-74
2022/10/17 01:28:24;;;;;;;2.70;1.30;;;;;;;15.04;91.25;99012.88;4154526;28;20044;-75
2022/10/17 01:30:49;;;;;;;3.53;1.75;;;;;;;15.07;90.75;99011.31;4161847;28;20636;-75
2022/10/17 01:33:02;;;;;;;1.80;1.48;;;;;;;15.24;89.50;99009.75;4156520;28;20054;-74
2022/10/17 01:35:21;;;;;;;1.60;1.50;;;;;;;15.27;89.24;99003.38;4155470;28;20054;-74
2022/10/17 01:37:45;;;;;;;3.10;1.83;;;;;;;15.27;89.20;99008.94;4155366;28;20044;-74
2022/10/17 01:39:51;;;;;;;3.65;1.48;;;;;;;15.20;89.43;99012.53;4159073;28;20441;-74
2022/10/17 01:42:12;;;;;;;1.95;1.50;;;;;;;15.34;88.32;99006.97;4156007;28;20045;-74
2022/10/17 01:44:19;;;;;;;2.33;1.90;;;;;;;15.50;87.72;99008.56;4156113;28;20473;-74
2022/10/17 01:46:33;;;;;;;1.70;1.42;;;;;;;15.50;87.60;99014.16;4153719;28;20098;-74
2022/10/17 01:48:36;;;;;;;4.30;1.70;;;;;;;15.52;87.33;99008.97;4155605;28;20390;-75
2022/10/17 01:50:43;;;;;;;2.90;1.70;;;;;;;15.53;87.22;99004.97;4156121;28;20657;-75
2022/10/17 01:52:58;;;;;;;2.45;1.58;;;;;;;15.59;86.62;99006.97;4155982;28;20509;-74
2022/10/17 01:55:15;;;;;;;2.33;1.63;;;;;;;15.51;87.02;99007.38;4158375;28;20081;-74
2022/10/17 01:57:30;;;;;;;2.47;1.80;;;;;;;15.53;86.86;99002.19;4154973;28;20101;-75
2022/10/17 01:59:43;;;;;;;1.95;1.55;;;;;;;15.45;87.52;99004.19;4154360;28;20068;-75
2022/10/17 02:01:45;;;;;;;2.80;1.42;;;;;;;15.51;87.04;99002.59;4157123;28;20049;-74
2022/10/17 02:03:49;;;;;;;2.40;1.60;;;;;;;15.55;86.76;99008.97;4156623;28;20045;-74
2022/10/17 02:05:49;;;;;;;7.05;1.70;;;;;;;15.57;86.77;99003.00;4159157;28;20052;-74
2022/10/17 02:07:50;;;;;;;2.58;1.77;;;;;;;15.54;86.75;99007.38;4155036;28;20486;-74
2022/10/17 02:09:50;;;;;;;2.05;1.50;;;;;;;15.55;86.61;99006.16;4154497;28;20046;-74
2022/10/17 02:12:15;;;;;;;3.15;1.70;;;;;;;15.54;86.73;99010.16;4155571;28;20484;-74
2022/10/17 02:14:41;;;;;;;3.85;2.00;;;;;;;15.48;87.07;99013.75;4154368;28;20053;-75
2022/10/17 02:16:53;;;;;;;2.13;1.60;;;;;;;15.51;87.09;99016.53;4156828;28;20309;-74
2022/10/17 02:19:09;;;;;;;3.63;1.88;;;;;;;15.60;86.44;99016.94;4154862;28;20052;-74
2022/10/17 02:21:19;;;;;;;3.22;1.52;;;;;;;15.58;86.37;99016.53;4159603;28;20041;-74
2022/10/17 02:23:30;;;;;;;2.60;1.90;;;;;;;15.59;86.08;99028.50;4156514;28;20046;-74
2022/10/17 02:25:40;;;;;;;2.67;1.90;;;;;;;15.55;87.03;99031.25;4161647;28;20051;-75
2022/10/17 02:28:18;;;;;;;1.95;1.67;;;;;;;15.49;87.14;99034.88;4154736;28;20053;-74
2022/10/17 02:30:33;;;;;;;2.72;1.73;;;;;;;15.48;86.80;99038.84;4159234;28;20040;-74
2022/10/17 02:32:43;;;;;;;2.33;1.63;;;;;;;15.56;86.50;99032.88;4154858;28;20107;-75
2022/10/17 02:34:51;;;;;;;2.72;1.73;;;;;;;15.58;85.97;99026.91;4156513;28;20041;-74
2022/10/17 02:36:56;;;;;;;3.10;2.10;;;;;;;15.64;85.69;99037.31;4155990;28;20417;-75
2022/10/17 02:38:58;;;;;;;2.95;1.52;;;;;;;15.62;86.12;99044.44;4159970;28;20049;-74
2022/10/17 02:40:59;;;;;;;2.45;1.90;;;;;;;15.47;86.75;99043.59;4157917;28;20098;-75
2022/10/17 02:43:00;;;;;;;4.00;2.20;;;;;;;15.31;87.33;99040.44;4158143;28;20091;-75
2022/10/17 02:45:01;;;;;;;2.90;1.92;;;;;;;15.12;88.60;99039.56;4158353;28;20147;-74
2022/10/17 02:47:28;;;;;;;3.88;1.80;;;;;;;15.15;88.62;99046.38;4159567;28;20049;-75
2022/10/17 02:49:34;;;;;;;3.00;2.10;;;;;;;15.03;89.20;99046.72;4156879;28;20041;-75
2022/10/17 02:52:13;;;;;;;2.10;1.80;;;;;;;14.88;89.95;99046.69;4158012;28;20516;-75
2022/10/17 02:54:21;;;;;;;3.17;2.10;;;;;;;14.77;90.57;99056.19;4088539;29;20086;-75
2022/10/17 02:56:25;;;;;;;2.67;2.22;;;;;;;14.67;90.97;99054.97;4132077;28;20061;-75
2022/10/17 02:58:31;;;;;;;4.45;2.50;;;;;;;14.88;90.46;99049.47;4157492;28;20115;-74
2022/10/17 03:00:31;;;;;;;5.60;1.65;;;;;;;14.99;89.49;99052.31;4158537;28;20524;-75
2022/10/17 03:02:44;;;;;;;3.22;2.00;;;;;;;15.04;89.03;99065.84;4155621;28;20117;-74
2022/10/17 03:04:45;;;;;;;3.50;2.75;;;;;;;14.97;89.49;99054.66;4158828;28;20072;-75
2022/10/17 03:06:47;;;;;;;4.55;2.30;;;;;;;14.96;89.59;99055.84;4157920;28;20164;-75
2022/10/17 03:08:48;;;;;;;2.92;2.10;;;;;;;14.98;89.19;99059.06;4159428;28;20044;-75
2022/10/17 03:10:48;;;;;;;3.67;2.05;;;;;;;14.92;89.73;99057.84;4157303;28;20058;-74
2022/10/17 03:12:49;;;;;;;4.07;2.60;;;;;;;14.81;90.29;99060.59;4163179;28;20049;-74
2022/10/17 03:14:49;;;;;;;4.10;2.25;;;;;;;14.70;90.42;99059.75;4159800;28;20053;-75
2022/10/17 03:16:49;;;;;;;4.38;2.63;;;;;;;14.66;90.92;99058.16;4160509;28;20037;-74
2022/10/17 03:18:50;;;;;;;3.90;2.30;;;;;;;14.52;91.68;99054.09;4157743;28;20496;-75
2022/10/17 03:20:50;;;;;;;4.18;2.00;;;;;;;14.39;92.13;99050.00;4157128;28;20044;-75
2022/10/17 03:22:50;;;;;;;3.35;2.35;;;;;;;14.26;92.65;99054.34;4158090;28;20203;-75
2022/10/17 03:24:50;;;;;;;2.95;2.28;;;;;;;14.15;93.66;99059.00;4157777;28;20049;-74
2022/10/17 03:26:51;;;;;;;2.42;1.85;;;;;;;14.02;94.29;99059.34;4157784;28;20076;-75
2022/10/17 03:28:51;;;;;;;5.75;2.60;;;;;;;13.96;94.57;99054.53;4156472;28;20051;-74
2022/10/17 03:30:51;;;;;;;5.15;2.60;;;;;;;13.91;95.04;99050.13;4157786;28;20041;-75
2022/10/17 03:32:51;;;;;;;3.20;2.50;;;;;;;13.87;94.27;99057.63;4157598;28;20042;-75
2022/10/17 03:34:52;;;;;;;3.53;2.22;;;;;;;13.86;95.25;99061.63;4156808;28;20056;-75
2022/10/17 03:36:52;;;;;;;3.70;2.40;;;;;;;13.78;95.67;99059.97;4160718;28;20041;-74
2022/10/17 03:38:54;;;;;;;4.22;2.03;;;;;;;13.77;96.17;99061.94;4157210;28;20505;-74
2022/10/17 03:40:55;;;;;;;5.32;3.00;;;;;;;13.76;95.97;99054.78;4157212;28;20072;-75
2022/10/17 03:42:55;;;;;;;4.00;2.50;;;;;;;13.74;95.58;99059.16;4156702;28;20084;-75
2022/10/17 03:44:56;;;;;;;4.07;2.72;;;;;;;13.74;95.92;99061.94;4157245;28;20964;-75
2022/10/17 03:46:56;;;;;;;4.20;2.50;;;;;;;13.66;96.06;99063.84;4162563;28;20077;-75
2022/10/17 03:48:57;;;;;;;5.55;3.25;;;;;;;13.60;96.59;99061.81;4155918;28;20679;-75
2022/10/17 03:50:59;;;;;;;4.55;2.45;;;;;;;13.51;96.93;99064.09;4156780;28;20603;-74
2022/10/17 03:52:59;;;;;;;3.15;2.50;;;;;;;13.42;97.40;99062.44;4157984;28;20058;-74
2022/10/17 03:54:59;;;;;;;3.35;2.30;;;;;;;13.41;97.61;99071.97;4160076;28;20052;-75
2022/10/17 03:56:59;;;;;;;3.85;2.72;;;;;;;13.32;97.83;99070.66;4156874;28;20084;-74
2022/10/17 03:59:00;;;;;;;3.35;2.22;;;;;;;13.24;98.25;99072.59;4157250;28;20378;-74
2022/10/17 04:01:08;;;;;;;4.80;2.50;;;;;;;13.15;98.17;99074.81;4159421;28;20061;-75
2022/10/17 04:03:08;;;;;;;8.18;3.13;;;;;;;13.03;99.08;99075.09;4162559;28;20543;-74
2022/10/17 04:05:09;;;;;;;6.13;3.67;;;;;;;12.93;99.93;99074.59;4160647;28;20049;-74
2022/10/17 04:07:09;;;;;;;5.47;3.38;;;;;;;12.90;99.99;99080.09;4157828;28;20370;-75
2022/10/17 04:09:09;;;;;;;4.07;3.40;;;;;;;12.88;99.78;99074.94;4159525;28;20409;-75
2022/10/17 04:11:14;;;;;;;4.90;3.08;;;;;;;12.79;99.79;99079.19;4155409;28;20057;-75
2022/10/17 04:13:14;;;;;;;4.80;3.38;;;;;;;12.78;100.00;99083.94;4160567;28;20049;-74
2022/10/17 04:15:14;;;;;;;4.40;3.30;;;;;;;12.71;100.00;99085.81;4158297;28;20420;-75
2022/10/17 04:17:15;;;;;;;6.65;4.30;;;;;;;12.64;100.00;99080.97;4165276;28;20053;-75
2022/10/17 04:19:15;;;;;;;11.15;5.30;;;;;;;12.56;100.00;99077.31;4159102;28;20481;-74
2022/10/17 04:21:17;;;;;;;12.10;6.45;;;;;;;12.56;100.00;99080.06;4157632;28;20045;-74
2022/10/17 04:23:17;;;;;;;15.97;7.43;;;;;;;12.54;100.00;99073.31;4157042;28;20042;-74
2022/10/17 04:25:17;;;;;;;15.57;8.07;;;;;;;12.49;100.00;99079.19;4156740;28;20270;-74
2022/10/17 04:27:18;;;;;;;13.45;6.90;;;;;;;12.44;100.00;99076.75;4157544;28;20041;-75
2022/10/17 04:29:18;;;;;;;13.32;7.65;;;;;;;12.45;100.00;99084.69;4156606;28;20050;-74
2022/10/17 04:31:18;;;;;;;15.68;8.10;;;;;;;12.37;100.00;99089.34;4155569;28;20468;-74
2022/10/17 04:33:19;;;;;;;12.73;7.82;;;;;;;12.38;100.00;99076.28;4155802;28;20481;-74
2022/10/17 04:35:19;;;;;;;10.95;5.88;;;;;;;12.42;100.00;99082.69;4156406;28;20546;-74
2022/10/17 04:37:19;;;;;;;11.88;6.15;;;;;;;12.45;100.00;99090.25;4159902;28;20060;-75
2022/10/17 04:39:20;;;;;;;6.82;3.90;;;;;;;12.46;100.00;99091.03;4156711;28;20427;-74
2022/10/17 04:41:20;;;;;;;11.75;6.03;;;;;;;12.49;100.00;99085.53;4155796;28;20775;-74
2022/10/17 04:43:20;;;;;;;7.80;4.57;;;;;;;12.62;100.00;99084.13;4156934;28;20042;-74
2022/10/17 04:45:20;;;;;;;7.60;3.97;;;;;;;12.68;100.00;99083.81;4157281;28;20069;-74
2022/10/17 04:47:21;;;;;;;4.82;2.88;;;;;;;12.68;100.00;99079.06;4156991;28;20482;-74
2022/10/17 04:49:21;;;;;;;11.00;4.32;;;;;;;12.66;100.00;99081.41;4156273;28;20041;-74
2022/10/17 04:51:21;;;;;;;5.03;3.20;;;;;;;12.65;100.00;99079.78;4156109;28;20041;-74
2022/10/17 04:53:22;;;;;;;6.43;3.60;;;;;;;12.62;100.00;99089.69;4157655;28;20513;-75
2022/10/17 04:55:23;;;;;;;3.92;2.67;;;;;;;12.59;100.00;99078.53;4157081;28;20197;-74
2022/10/17 04:57:23;;;;;;;3.90;3.00;;;;;;;12.56;100.00;99082.06;4097137;28;20043;-74
2022/10/17 04:59:24;;;;;;;4.05;3.08;;;;;;;12.50;100.00;99084.38;4157289;28;20045;-74
2022/10/17 05:01:25;;;;;;;4.18;2.80;;;;;;;12.50;100.00;99087.16;4155632;28;20435;-74
2022/10/17 05:03:26;;;;;;;3.22;2.45;;;;;;;12.48;100.00;99083.13;4157046;28;20041;-74
2022/10/17 05:05:26;;;;;;;4.05;3.00;;;;;;;12.46;100.00;99083.50;4161124;28;20872;-74
2022/10/17 05:07:26;;;;;;;4.18;2.60;;;;;;;12.43;100.00;99089.03;4158494;28;20210;-74
2022/10/17 05:09:27;;;;;;;3.75;2.17;;;;;;;12.43;100.00;99091.81;4155612;28;20067;-75
2022/10/17 05:11:28;;;;;;;3.05;2.67;;;;;;;12.44;100.00;99085.06;4155052;28;20052;-74
2022/10/17 05:13:29;;;;;;;4.32;3.05;;;;;;;12.51;100.00;99093.50;4156177;28;20044;-74
2022/10/17 05:15:29;;;;;;;3.70;2.75;;;;;;;12.53;100.00;99091.16;4155566;28;20088;-74
2022/10/17 05:17:29;;;;;;;5.40;2.88;;;;;;;12.52;100.00;99098.69;4159432;28;20072;-74
2022/10/17 05:19:30;;;;;;;3.05;2.53;;;;;;;12.49;100.00;99087.50;4156368;28;20045;-75
2022/10/17 05:21:30;;;;;;;6.50;2.97;;;;;;;12.45;100.00;99101.34;4160144;28;20060;-75
2022/10/17 05:23:30;;;;;;;7.18;2.97;;;;;;;12.37;100.00;99103.22;4156792;28;20033;-74
2022/10/17 05:25:31;;;;;;;6.20;2.70;;;;;;;12.34;100.00;99105.97;4156816;28;20041;-75
2022/10/17 05:27:31;;;;;;;5.10;3.00;;;;;;;12.29;100.00;99114.59;4157653;28;20202;-74
2022/10/17 05:29:33;;;;;;;12.90;3.15;;;;;;;12.21;100.00;99110.91;4157660;28;20389;-74
2022/10/17 05:31:34;;;;;;;6.97;2.90;;;;;;;12.19;100.00;99118.81;4156623;28;20056;-74
2022/10/17 05:33:34;;;;;;;4.15;2.67;;;;;;;12.11;100.00;99114.31;4158080;28;20781;-74
2022/10/17 05:35:35;;;;;;;3.58;2.67;;;;;;;12.09;100.00;99123.03;4155493;28;20095;-74
2022/10/17 05:37:35;;;;;;;5.30;3.00;;;;;;;12.04;100.00;99125.31;4155247;28;20452;-75
2022/10/17 05:39:35;;;;;;;5.20;3.17;;;;;;;12.05;100.00;99129.69;4153997;28;20481;-74
2022/10/17 05:41:35;;;;;;;4.40;2.60;;;;;;;12.06;100.00;99131.28;4155241;28;20056;-74
2022/10/17 05:43:36;;;;;;;5.47;3.53;;;;;;;12.02;100.00;99130.44;4154605;28;20037;-74
2022/10/17 05:45:36;;;;;;;4.25;2.88;;;;;;;11.98;100.00;99129.56;4158377;28;20422;-74
2022/10/17 05:47:37;;;;;;;5.97;2.90;;;;;;;11.96;100.00;99129.13;4154421;28;20100;-74
2022/10/17 05:49:37;;;;;;;9.32;3.42;;;;;;;11.97;100.00;99130.72;4154668;28;20045;-74
2022/10/17 05:51:37;;;;;;;6.05;3.30;;;;;;;11.97;100.00;99123.22;4154964;28;20033;-74
2022/10/17 05:53:40;;;;;;;5.93;3.22;;;;;;;12.00;100.00;99130.00;4154328;28;20045;-74
2022/10/17 05:55:40;;;;;;;4.50;2.75;;;;;;;12.01;100.00;99129.63;4155429;28;20338;-74
2022/10/17 05:57:40;;;;;;;4.53;2.70;;;;;;;11.98;100.00;99118.47;4155180;28;20470;-74
2022/10/17 05:59:40;;;;;;;3.20;2.80;;;;;;;12.03;100.00;99130.06;4155067;28;20525;-74
2022/10/17 06:01:41;;;;;;;5.55;2.95;;;;;;;12.02;100.00;99127.66;4154099;28;20045;-75
2022/10/17 06:03:41;;;;;;;4.60;3.00;;;;;;;12.07;100.00;99128.13;4155061;28;20044;-74
2022/10/17 06:05:41;;;;;;;5.32;2.63;;;;;;;12.09;100.00;99131.34;4155916;28;20044;-74
2022/10/17 06:07:42;;;;;;;3.67;3.13;;;;;;;12.13;100.00;99139.72;4153866;28;20126;-74
2022/10/17 06:09:42;;;;;;;5.03;3.42;;;;;;;12.20;100.00;99122.38;4154927;28;20414;-74
2022/10/17 06:11:42;;;;;;;3.47;2.92;;;;;;;12.20;100.00;99127.94;4154173;28;20037;-74
2022/10/17 06:13:42;;;;;;;4.13;3.05;;;;;;;12.24;100.00;99126.78;4154135;28;20057;-74
2022/10/17 06:15:44;;;;;;;5.05;3.50;;;;;;;12.25;100.00;99124.84;4155065;28;20353;-74
2022/10/17 06:17:44;;;;;;;8.23;3.47;;;;;;;12.23;100.00;99125.19;4154469;28;20049;-74
2022/10/17 06:19:44;;;;;;;4.88;3.08;;;;;;;12.27;100.00;99126.06;4155041;28;20040;-74
2022/10/17 06:21:44;;;;;;;5.63;3.05;;;;;;;12.30;100.00;99133.63;4153985;28;20084;-74
2022/10/17 06:23:45;;;;;;;5.07;3.67;;;;;;;12.30;100.00;99141.97;4155110;28;20333;-74
2022/10/17 06:25:45;;;;;;;8.05;3.72;;;;;;;12.34;100.00;99139.25;4153984;28;20564;-74
2022/10/17 06:27:45;;;;;;;4.70;2.65;;;;;;;12.37;100.00;99138.50;4154468;28;20046;-74
2022/10/17 06:29:47;;;;;;;3.70;2.80;;;;;;;12.41;100.00;99132.97;4154574;28;20100;-74
2022/10/17 06:31:47;;;;;;;4.88;3.08;;;;;;;12.46;100.00;99146.56;4154244;28;20052;-74
2022/10/17 06:33:47;;;;;;;5.13;3.15;;;;;;;12.46;100.00;99146.56;4155545;28;20041;-74
2022/10/17 06:35:55;;;;;;;4.95;2.95;;;;;;;12.46;100.00;99155.69;4154332;28;20045;-74
2022/10/17 06:37:55;;;;;;;5.70;3.03;;;;;;;12.49;100.00;99146.59;4155465;28;20161;-74
2022/10/17 06:39:55;;;;;;;4.70;3.20;;;;;;;12.51;100.00;99157.34;4153234;28;20306;-74
2022/10/17 06:41:55;;;;;;;4.15;2.47;;;;;;;12.53;100.00;99160.53;4154764;28;20464;-74
2022/10/17 06:43:56;;;;;;;3.63;2.70;;;;;;;12.55;100.00;99169.28;4160882;28;20046;-74
2022/10/17 06:45:56;;;;;;;5.43;3.38;;;;;;;12.51;100.00;99169.25;4155920;28;20048;-75
2022/10/17 06:47:56;;;;;;;8.40;2.95;;;;;;;12.49;100.00;99166.00;4155760;28;20482;-74
2022/10/17 06:49:57;;;;;;;4.80;2.88;;;;;;;12.53;100.00;99175.22;4159560;28;20156;-74
2022/10/17 06:51:57;;;;;;;3.85;2.90;;;;;;;12.56;100.00;99168.09;4154551;28;20041;-74
2022/10/17 06:53:57;;;;;;;4.07;2.92;;;;;;;12.61;100.00;99170.56;4154348;28;20057;-74
2022/10/17 06:56:01;;;;;;;6.65;2.97;;;;;;;12.65;100.00;99176.97;4158635;28;20045;-74
2022/10/17 06:58:02;;;;;;;4.30;2.92;;;;;;;12.64;100.00;99161.47;4153644;28;20046;-74
2022/10/17 07:00:04;;;;;;;10.48;3.67;;;;;;;12.72;100.00;99177.06;4153582;28;20036;-74
2022/10/17 07:02:05;;;;;;;;;;;;;;;12.79;100.00;99179.13;4161292;28;20033;-74
2022/10/17 07:04:05;;;;;;;8.13;3.80;;;;;;;12.81;100.00;99174.00;4154391;28;19921;-74
2022/10/17 07:06:06;;;;;;;5.03;3.10;;;;;;;12.89;100.00;99179.28;4154648;28;20528;-74
2022/10/17 07:08:06;;;;;;;3.95;3.15;;;;;;;12.94;100.00;99183.72;4153610;28;20482;-75
2022/10/17 07:10:08;;;;;;;9.50;3.50;;;;;;;13.01;100.00;99178.25;4153900;28;20112;-74
2022/10/17 07:12:08;;;;;;;5.35;4.00;;;;;;;13.09;100.00;99188.28;4155630;28;20374;-74
2022/10/17 07:14:08;;;;;;;4.47;3.42;;;;;;;13.13;100.00;99185.53;4154396;28;20045;-75
2022/10/17 07:16:09;;;;;;;5.57;3.20;;;;;;;13.21;100.00;99181.69;4155042;28;20155;-75
2022/10/17 07:18:10;;;;;;;5.30;3.08;;;;;;;13.28;100.00;99183.78;4156043;28;20036;-74
2022/10/17 07:20:10;;;;;;;6.63;3.38;;;;;;;13.37;100.00;99187.84;4153672;28;20205;-74
2022/10/17 07:22:12;;;;;;;7.28;3.40;;;;;;;13.33;100.00;99189.81;4154770;28;20407;-74
2022/10/17 07:24:12;;;;;;;4.30;3.05;;;;;;;13.45;99.10;99186.75;4159051;28;20021;-74
2022/10/17 07:26:14;;;;;;;5.70;3.50;;;;;;;13.48;100.00;99191.53;4157323;28;20379;-74
2022/10/17 07:28:15;;;;;;;7.20;3.75;;;;;;;13.54;100.00;99196.75;4158624;28;20128;-74
2022/10/17 07:30:16;;;;;;;4.93;3.83;;;;;;;13.56;100.00;99197.97;4157240;28;20170;-74
2022/10/17 07:32:16;;;;;;;8.50;5.85;;;;;;;13.61;100.00;99205.19;4156556;28;20030;-74
2022/10/17 07:34:17;;;;;;;23.55;5.63;;;;;;;13.64;100.00;99198.84;4157326;28;20030;-74
2022/10/17 07:36:18;;;;;;;8.20;6.70;;;;;;;13.68;100.00;99202.50;4162434;28;20025;-74
2022/10/17 07:38:18;;;;;;;14.32;7.82;;;;;;;13.71;100.00;99207.28;4156677;28;20395;-74
2022/10/17 07:40:18;;;;;;;9.40;6.90;;;;;;;13.75;100.00;99210.91;4159330;28;20030;-74
2022/10/17 07:42:19;;;;;;;16.13;7.47;;;;;;;13.73;100.00;99213.25;4159582;28;20048;-74
2022/10/17 07:44:19;;;;;;;12.68;8.20;;;;;;;13.87;100.00;99226.50;4157493;28;20033;-74
2022/10/17 07:46:19;;;;;;;10.65;6.05;;;;;;;13.91;100.00;99225.38;4156045;28;20025;-74
2022/10/17 07:48:21;;;;;;;9.80;5.00;;;;;;;13.94;100.00;99219.03;4156988;28;20547;-74
2022/10/17 07:50:22;;;;;;;6.50;4.18;;;;;;;13.97;100.00;99204.34;4157244;28;20051;-74
2022/10/17 07:52:22;;;;;;;10.48;5.80;;;;;;;14.02;98.36;99206.00;4157117;28;20034;-74
2022/10/17 07:54:23;;;;;;;8.65;5.03;;;;;;;13.99;98.66;99198.44;4157271;28;20340;-75
2022/10/17 07:56:23;;;;;;;8.52;5.10;;;;;;;14.03;100.00;99202.84;4156637;28;20077;-75
2022/10/17 07:58:24;;;;;;;5.78;4.18;;;;;;;14.09;100.00;99208.06;4156917;28;20076;-75
2022/10/17 08:00:26;;;;;;;6.53;4.03;;;;;;;14.11;100.00;99216.81;4155598;28;20212;-74
2022/10/17 08:02:26;;;;;;;6.78;4.13;;;;;;;14.17;100.00;99215.28;4157128;28;20521;-75
2022/10/17 08:04:27;;;;;;;5.68;3.90;;;;;;;14.24;100.00;99204.22;4156464;28;20042;-75
2022/10/17 08:06:27;;;;;;;6.15;3.95;;;;;;;14.33;100.00;99213.84;4156606;28;20374;-74
2022/10/17 08:08:28;;;;;;;5.38;3.70;;;;;;;14.45;100.00;99217.50;4161791;28;20100;-74
2022/10/17 08:10:28;;;;;;;5.78;3.50;;;;;;;14.59;100.00;99214.84;4157415;28;20077;-74
2022/10/17 08:12:31;;;;;;;5.03;2.90;;;;;;;14.67;100.00;99213.72;4157130;28;20485;-75
2022/10/17 08:14:31;;;;;;;6.22;4.38;;;;;;;14.73;99.35;99217.75;4159773;28;20057;-75
2022/10/17 08:16:32;;;;;;;4.78;3.25;;;;;;;14.79;99.57;99205.03;4156685;28;20049;-75
2022/10/17 08:18:33;;;;;;;6.05;3.30;;;;;;;14.96;99.59;99211.91;4163449;28;20095;-74
2022/10/17 08:20:33;;;;;;;6.70;3.47;;;;;;;15.11;98.63;99216.34;4164298;28;20033;-74
2022/10/17 08:22:34;;;;;;;5.45;3.40;;;;;;;15.19;97.67;99217.19;4156096;28;20041;-74
2022/10/17 08:24:34;;;;;;;5.95;3.60;;;;;;;15.28;97.75;99211.25;4157119;28;20095;-75
2022/10/17 08:26:34;;;;;;;3.83;2.80;;;;;;;15.32;97.57;99212.09;4157159;28;20068;-75
2022/10/17 08:28:36;;;;;;;3.60;2.95;;;;;;;15.39;97.18;99215.69;4155112;28;20037;-75
2022/10/17 08:30:37;;;;;;;3.95;3.00;;;;;;;15.48;97.65;99212.53;4156066;28;20081;-75
2022/10/17 08:32:37;;;;;;;5.40;3.20;;;;;;;15.57;97.66;99218.56;4156443;28;20049;-75
2022/10/17 08:34:37;;;;;;;6.95;3.30;;;;;;;15.59;97.76;99209.78;4157182;28;20037;-75
2022/10/17 08:36:38;;;;;;;7.97;2.83;;;;;;;15.68;97.99;99219.41;4155622;28;20119;-75
2022/10/17 08:38:38;;;;;;;5.82;3.17;;;;;;;15.70;98.02;99216.22;4155979;28;20046;-75
2022/10/17 08:40:41;;;;;;;4.95;2.95;;;;;;;15.76;97.98;99219.44;4156568;28;20041;-75
2022/10/17 08:43:12;;;;;;;5.95;3.05;;;;;;;15.80;97.89;99225.78;4154686;28;20042;-74
2022/10/17 08:45:49;;;;;;;4.05;3.13;;;;;;;15.86;97.95;99221.44;4160219;28;20042;-75
2022/10/17 08:47:58;;;;;;;7.43;3.35;;;;;;;15.97;97.84;99213.88;4158576;28;20500;-75
2022/10/17 08:50:02;;;;;;;6.97;3.58;;;;;;;16.06;97.07;99224.69;4160207;28;20501;-74
2022/10/17 08:52:17;;;;;;;5.20;3.03;;;;;;;16.13;97.03;99222.66;4156491;28;20053;-75
2022/10/17 08:54:24;;;;;;;10.88;6.18;;;;;;;16.26;96.55;99218.28;4155502;28;20029;-75
2022/10/17 08:56:32;;;;;;;9.05;6.45;;;;;;;16.35;95.74;99222.69;4159747;28;20041;-75
2022/10/17 08:58:35;;;;;;;11.45;5.55;;;;;;;16.40;96.08;99214.72;4157100;28;20042;-75
2022/10/17 09:00:35;;;;;;;8.95;5.45;;;;;;;16.51;93.81;99220.28;4156608;28;20073;-75
2022/10/17 09:02:48;;;;;;;4.60;3.13;;;;;;;16.59;93.60;99219.09;4158802;28;20117;-75
2022/10/17 09:04:57;;;;;;;5.07;3.47;;;;;;;16.67;93.57;99231.84;4162141;28;20053;-75
2022/10/17 09:07:08;;;;;;;4.25;3.13;;;;;;;16.71;93.30;99221.50;4158121;28;20053;-75
2022/10/17 09:09:30;;;;;;;7.43;4.55;;;;;;;16.81;92.81;99220.69;4160536;28;20481;-76
2022/10/17 09:11:42;;;;;;;5.32;4.35;;;;;;;16.86;92.49;99211.09;4160913;28;20052;-75
2022/10/17 09:14:10;;;;;;;7.03;3.53;;;;;;;17.01;91.80;99207.06;4157358;28;20474;-75
2022/10/17 09:16:24;;;;;;;3.95;3.03;;;;;;;17.18;90.73;99215.81;4156769;28;20053;-75
2022/10/17 09:18:30;;;;;;;3.85;2.90;;;;;;;17.28;89.82;99204.56;4159171;28;20520;-75
2022/10/17 09:20:44;;;;;;;4.32;3.00;;;;;;;17.37;89.83;99204.94;4156331;28;20465;-75
2022/10/17 09:22:48;;;;;;;4.88;3.10;;;;;;;17.49;88.74;99212.09;4156734;28;20139;-75
2022/10/17 09:24:56;;;;;;;6.15;2.78;;;;;;;17.55;88.72;99207.66;4154208;28;20128;-75
2022/10/17 09:26:56;;;;;;;3.67;2.70;;;;;;;17.70;84.95;99208.41;4157591;28;20187;-75
2022/10/17 09:28:59;;;;;;;2.78;2.15;;;;;;;17.85;82.99;99200.72;4157551;28;20046;-75
2022/10/17 09:31:04;;;;;;;5.97;2.50;;;;;;;18.03;80.89;99192.19;4156588;28;20057;-75
2022/10/17 09:33:27;;;;;;;3.00;2.70;;;;;;;18.06;81.11;99189.38;4154996;28;20038;-75
2022/10/17 09:35:29;;;;;;;4.60;2.35;;;;;;;18.23;79.44;99201.66;4155688;28;20088;-75
2022/10/17 09:37:31;;;;;;;4.22;2.40;;;;;;;18.56;75.63;99185.38;4155063;28;20038;-75
2022/10/17 09:39:32;;;;;;;2.83;2.45;;;;;;;18.67;75.08;99186.88;4156040;28;20040;-74